createdAt,value
2023-05-17T00:01:21.347Z,8.30
2023-05-17T00:02:54.374Z,8.30
2023-05-17T00:04:27.597Z,8.30
2023-05-17T00:06:00.670Z,8.30
2023-05-17T00:07:32.914Z,8.20
2023-05-17T00:09:05.941Z,8.20
2023-05-17T00:10:39.199Z,8.20
2023-05-17T00:12:12.254Z,8.10
2023-05-17T00:13:49.251Z,8.30
2023-05-17T00:15:22.361Z,8.20
2023-05-17T00:16:55.465Z,8.20
2023-05-17T00:18:30.449Z,8.10
2023-05-17T00:20:08.955Z,8.10
2023-05-17T00:21:43.227Z,8.20
2023-05-17T00:23:17.373Z,8.10
2023-05-17T00:24:52.421Z,8.10
2023-05-17T00:26:25.576Z,8.10
2023-05-17T00:27:58.509Z,8.10
2023-05-17T00:29:33.124Z,8.10
2023-05-17T00:31:06.449Z,8.10
2023-05-17T00:32:41.339Z,8.10
2023-05-17T00:34:14.497Z,8.10
2023-05-17T00:35:49.579Z,8.10
2023-05-17T00:37:22.644Z,8.10
2023-05-17T00:38:55.734Z,8.00
2023-05-17T00:42:34.556Z,8.00
2023-05-17T00:43:05.186Z,8.00
2023-05-17T00:44:06.634Z,8.00
2023-05-17T00:45:41.113Z,8.00
2023-05-17T00:47:15.537Z,8.00
2023-05-17T00:48:48.658Z,8.00
2023-05-17T00:50:22.117Z,8.10
2023-05-17T00:51:58.054Z,8.00
2023-05-17T00:53:31.393Z,8.10
2023-05-17T00:55:04.472Z,8.00
2023-05-17T00:56:37.531Z,8.00
2023-05-17T00:58:10.742Z,8.00
2023-05-17T00:59:45.684Z,8.00
2023-05-17T01:01:21.087Z,7.90
2023-05-17T01:02:54.827Z,7.90
2023-05-17T01:04:27.919Z,8.00
2023-05-17T01:06:03.206Z,7.90
2023-05-17T01:07:36.211Z,7.90
2023-05-17T01:09:10.142Z,7.80
2023-05-17T01:10:55.397Z,7.80
2023-05-17T01:12:37.148Z,7.70
2023-05-17T01:14:19.323Z,7.70
2023-05-17T01:15:58.902Z,7.70
2023-05-17T01:17:41.394Z,7.70
2023-05-17T01:19:36.096Z,7.60
2023-05-17T01:21:32.179Z,7.60
2023-05-17T01:23:16.544Z,7.60
2023-05-17T01:25:00.915Z,7.60
2023-05-17T01:26:40.106Z,7.60
2023-05-17T01:28:16.201Z,7.60
2023-05-17T01:29:50.889Z,7.60
2023-05-17T01:31:24.369Z,7.60
2023-05-17T01:32:59.436Z,7.50
2023-05-17T01:34:34.312Z,7.50
2023-05-17T01:36:08.406Z,7.50
2023-05-17T01:37:40.561Z,7.40
2023-05-17T01:39:13.771Z,7.40
2023-05-17T01:40:52.338Z,7.30
2023-05-17T01:42:30.783Z,7.40
2023-05-17T01:44:12.778Z,7.40
2023-05-17T01:45:52.112Z,7.30
2023-05-17T01:47:34.634Z,7.30
2023-05-17T01:49:12.100Z,7.30
2023-05-17T01:50:50.992Z,7.40
2023-05-17T01:52:32.188Z,7.30
2023-05-17T01:54:11.403Z,7.30
2023-05-17T01:55:48.688Z,7.30
2023-05-17T01:57:26.091Z,7.40
2023-05-17T01:59:04.573Z,7.30
2023-05-17T02:00:40.331Z,7.30
2023-05-17T02:02:15.337Z,7.20
2023-05-17T02:03:51.931Z,7.20
2023-05-17T02:05:25.827Z,7.30
2023-05-17T02:06:58.837Z,7.30
2023-05-17T02:08:31.921Z,7.20
2023-05-17T02:10:05.366Z,7.20
2023-05-17T02:11:38.478Z,7.20
2023-05-17T02:13:12.718Z,7.20
2023-05-17T02:14:47.114Z,7.20
2023-05-17T02:16:20.255Z,7.10
2023-05-17T02:17:56.070Z,7.10
2023-05-17T02:19:29.507Z,7.10
2023-05-17T02:21:02.828Z,7.00
2023-05-17T02:22:36.078Z,7.00
2023-05-17T02:24:11.182Z,7.00
2023-05-17T02:25:51.398Z,7.00
2023-05-17T02:27:24.537Z,7.00
2023-05-17T02:28:57.580Z,7.00
2023-05-17T02:30:33.137Z,7.00
2023-05-17T02:32:07.305Z,7.00
2023-05-17T02:33:41.313Z,6.90
2023-05-17T02:35:14.592Z,6.90
2023-05-17T02:36:48.442Z,6.80
2023-05-17T02:38:21.949Z,6.80
2023-05-17T02:39:54.214Z,6.80
2023-05-17T02:41:27.266Z,6.80
2023-05-17T02:43:00.673Z,6.70
2023-05-17T02:44:34.957Z,6.70
2023-05-17T02:46:09.835Z,6.80
2023-05-17T02:47:41.923Z,6.80
2023-05-17T02:49:15.005Z,6.80
2023-05-17T02:50:48.033Z,6.80
2023-05-17T02:52:20.127Z,6.70
2023-05-17T02:53:53.218Z,6.70
2023-05-17T02:55:26.477Z,6.70
2023-05-17T02:56:59.510Z,6.70
2023-05-17T02:58:32.554Z,6.60
2023-05-17T03:00:06.919Z,6.70
2023-05-17T03:01:42.082Z,6.70
2023-05-17T03:03:17.682Z,6.70
2023-05-17T03:04:51.073Z,6.70
2023-05-17T03:06:23.188Z,6.70
2023-05-17T03:07:57.496Z,6.80
2023-05-17T03:09:30.976Z,6.70
2023-05-17T03:11:04.076Z,6.60
2023-05-17T03:12:37.197Z,6.70
2023-05-17T03:14:09.369Z,6.70
2023-05-17T03:15:45.612Z,6.70
2023-05-17T03:17:20.056Z,6.60
2023-05-17T03:18:53.510Z,6.60
2023-05-17T03:20:26.624Z,6.60
2023-05-17T03:21:59.602Z,6.50
2023-05-17T03:23:32.560Z,6.50
2023-05-17T03:25:05.836Z,6.50
2023-05-17T03:26:38.919Z,6.50
2023-05-17T03:28:10.879Z,6.50
2023-05-17T03:29:43.826Z,6.50
2023-05-17T03:31:17.517Z,6.60
2023-05-17T03:32:52.571Z,6.50
2023-05-17T03:34:25.989Z,6.50
2023-05-17T03:35:58.802Z,6.60
2023-05-17T03:37:31.786Z,6.60
2023-05-17T03:39:05.038Z,6.60
2023-05-17T03:40:38.051Z,6.60
2023-05-17T03:42:11.070Z,6.60
2023-05-17T03:43:44.081Z,6.60
2023-05-17T03:45:17.481Z,6.70
2023-05-17T03:46:50.323Z,6.60
2023-05-17T03:48:27.035Z,6.60
2023-05-17T03:50:00.037Z,6.70
2023-05-17T03:51:33.141Z,6.70
2023-05-17T03:53:05.151Z,6.70
2023-05-17T03:54:38.159Z,6.70
2023-05-17T03:56:11.724Z,6.80
2023-05-17T03:57:44.761Z,6.80
2023-05-17T03:59:16.830Z,6.80
2023-05-17T04:00:49.861Z,6.80
2023-05-17T04:02:21.955Z,6.90
2023-05-17T04:03:56.448Z,6.90
2023-05-17T04:05:29.702Z,7.00
2023-05-17T04:07:02.718Z,7.10
2023-05-17T04:08:34.905Z,7.20
2023-05-17T04:10:08.558Z,7.20
2023-05-17T04:11:41.753Z,7.20
2023-05-17T04:13:14.946Z,7.30
2023-05-17T04:14:48.006Z,7.40
2023-05-17T04:16:21.389Z,7.50
2023-05-17T04:17:54.317Z,7.50
2023-05-17T04:19:28.942Z,7.60
2023-05-17T04:21:02.052Z,7.60
2023-05-17T04:22:35.150Z,7.70
2023-05-17T04:24:11.365Z,7.70
2023-05-17T04:25:45.462Z,7.70
2023-05-17T04:27:18.740Z,7.70
2023-05-17T04:28:51.807Z,7.80
2023-05-17T04:30:25.884Z,7.90
2023-05-17T04:31:58.906Z,7.90
2023-05-17T04:33:32.039Z,8.00
2023-05-17T04:35:07.793Z,8.00
2023-05-17T04:36:40.883Z,8.00
2023-05-17T04:38:16.718Z,8.00
2023-05-17T04:39:49.811Z,8.00
2023-05-17T04:41:22.886Z,8.10
2023-05-17T04:42:55.861Z,8.20
2023-05-17T04:44:28.984Z,8.20
2023-05-17T04:46:02.574Z,8.20
2023-05-17T04:47:35.783Z,8.30
2023-05-17T04:49:09.454Z,8.30
2023-05-17T04:50:47.045Z,8.30
2023-05-17T04:52:19.077Z,8.40
2023-05-17T04:53:52.093Z,8.40
2023-05-17T04:55:25.237Z,8.40
2023-05-17T04:56:58.326Z,8.50
2023-05-17T04:58:31.871Z,8.50
2023-05-17T05:00:06.846Z,8.60
2023-05-17T05:01:39.962Z,8.60
2023-05-17T05:03:13.043Z,8.60
2023-05-17T05:04:45.465Z,8.50
2023-05-17T05:06:19.895Z,8.40
2023-05-17T05:07:52.896Z,8.40
2023-05-17T05:09:25.868Z,8.40
2023-05-17T05:10:57.877Z,8.40
2023-05-17T05:12:30.834Z,8.50
2023-05-17T05:14:03.840Z,8.60
2023-05-17T05:15:37.662Z,8.60
2023-05-17T05:17:10.993Z,8.80
2023-05-17T05:18:44.031Z,8.90
2023-05-17T05:20:17.348Z,9.00
2023-05-17T05:21:51.700Z,8.90
2023-05-17T05:23:25.045Z,9.00
2023-05-17T05:24:57.860Z,9.00
2023-05-17T05:26:31.936Z,8.90
2023-05-17T05:28:05.329Z,9.00
2023-05-17T05:29:38.163Z,8.90
2023-05-17T05:31:11.158Z,8.80
2023-05-17T05:32:44.144Z,8.90
2023-05-17T05:34:17.149Z,8.90
2023-05-17T05:35:50.152Z,9.00
2023-05-17T05:37:24.577Z,9.00
2023-05-17T05:38:57.621Z,9.10
2023-05-17T05:40:30.832Z,9.20
2023-05-17T05:42:04.312Z,9.20
2023-05-17T05:43:37.820Z,9.30
2023-05-17T05:45:11.904Z,9.40
2023-05-17T05:46:45.249Z,9.50
2023-05-17T05:48:18.127Z,9.50
2023-05-17T05:49:51.191Z,9.50
2023-05-17T05:51:24.321Z,9.60
2023-05-17T05:53:14.387Z,9.80
2023-05-17T05:54:50.868Z,9.80
2023-05-17T05:56:25.699Z,9.80
2023-05-17T05:57:58.770Z,9.90
2023-05-17T05:59:31.706Z,9.90
2023-05-17T06:01:06.282Z,9.90
2023-05-17T06:02:39.928Z,9.90
2023-05-17T06:04:12.745Z,9.90
2023-05-17T06:05:45.889Z,9.90
2023-05-17T06:07:19.151Z,9.90
2023-05-17T06:08:53.559Z,10.00
2023-05-17T06:10:26.609Z,10.20
2023-05-17T06:12:01.025Z,10.30
2023-05-17T06:13:34.139Z,10.30
2023-05-17T06:15:09.078Z,10.40
2023-05-17T06:16:42.130Z,10.30
2023-05-17T06:18:16.120Z,10.20
2023-05-17T06:19:50.377Z,10.20
2023-05-17T06:21:23.464Z,10.20
2023-05-17T06:22:56.479Z,10.20
2023-05-17T06:24:30.800Z,10.30
2023-05-17T06:26:03.708Z,10.40
2023-05-17T06:27:36.692Z,10.50
2023-05-17T06:29:09.863Z,10.70
2023-05-17T06:30:42.880Z,10.70
2023-05-17T06:32:15.850Z,10.70
2023-05-17T06:33:48.937Z,10.70
2023-05-17T06:35:21.909Z,10.80
2023-05-17T06:36:55.053Z,10.80
2023-05-17T06:38:28.012Z,10.90
2023-05-17T06:40:14.823Z,10.90
2023-05-17T06:41:49.035Z,11.00
2023-05-17T06:43:22.702Z,11.00
2023-05-17T06:44:55.733Z,11.10
2023-05-17T06:46:28.712Z,11.10
2023-05-17T06:48:02.667Z,11.10
2023-05-17T06:49:35.672Z,11.00
2023-05-17T06:51:08.644Z,10.90
2023-05-17T06:52:41.692Z,11.00
2023-05-17T06:54:14.859Z,10.80
2023-05-17T06:55:49.298Z,10.80
2023-05-17T06:57:22.694Z,10.80
2023-05-17T06:58:55.602Z,10.80
2023-05-17T07:00:29.240Z,10.80
2023-05-17T07:02:02.437Z,10.90
2023-05-17T07:03:35.836Z,10.90
2023-05-17T07:05:09.548Z,10.90
2023-05-17T07:06:42.595Z,11.00
2023-05-17T07:08:16.086Z,11.10
2023-05-17T07:09:49.199Z,11.20
2023-05-17T07:11:23.575Z,11.20
2023-05-17T07:12:56.900Z,11.20
2023-05-17T07:14:29.694Z,11.30
2023-05-17T07:16:02.754Z,11.30
2023-05-17T07:17:38.212Z,11.40
2023-05-17T07:19:11.581Z,11.50
2023-05-17T07:20:44.644Z,11.70
2023-05-17T07:22:19.512Z,11.70
2023-05-17T07:23:52.553Z,11.60
2023-05-17T07:25:25.641Z,11.40
2023-05-17T07:27:00.021Z,11.60
2023-05-17T07:28:33.043Z,11.80
2023-05-17T07:30:07.651Z,11.60
2023-05-17T07:31:40.709Z,11.70
2023-05-17T07:33:13.815Z,11.70
2023-05-17T07:34:47.145Z,11.90
2023-05-17T07:36:20.176Z,12.00
2023-05-17T07:37:53.298Z,12.20
2023-05-17T07:39:26.336Z,12.10
2023-05-17T07:40:59.393Z,12.20
2023-05-17T07:42:34.494Z,12.20
2023-05-17T07:44:07.454Z,12.40
2023-05-17T07:45:40.407Z,12.30
2023-05-17T07:47:13.434Z,12.40
2023-05-17T07:48:46.671Z,12.60
2023-05-17T07:50:19.667Z,12.60
2023-05-17T07:51:53.155Z,12.40
2023-05-17T07:53:26.336Z,12.40
2023-05-17T07:54:59.371Z,12.40
2023-05-17T07:56:33.735Z,12.40
2023-05-17T07:58:08.094Z,12.40
2023-05-17T07:59:41.052Z,12.30
2023-05-17T08:01:14.044Z,12.30
2023-05-17T08:02:47.213Z,12.30
2023-05-17T08:04:20.555Z,12.40
2023-05-17T08:05:53.617Z,12.60
2023-05-17T08:07:26.673Z,12.70
2023-05-17T08:08:59.742Z,12.80
2023-05-17T08:10:32.813Z,12.90
2023-05-17T08:12:06.098Z,12.90
2023-05-17T08:13:40.323Z,13.00
2023-05-17T08:15:13.304Z,13.00
2023-05-17T08:16:47.375Z,13.20
2023-05-17T08:18:20.415Z,13.20
2023-05-17T08:19:53.564Z,13.20
2023-05-17T08:21:26.575Z,13.30
2023-05-17T08:23:02.231Z,13.40
2023-05-17T08:24:35.238Z,13.40
2023-05-17T08:26:07.374Z,13.30
2023-05-17T08:27:40.406Z,13.10
2023-05-17T08:29:14.735Z,12.90
2023-05-17T08:30:47.973Z,12.80
2023-05-17T08:32:21.162Z,12.60
2023-05-17T08:33:54.179Z,12.50
2023-05-17T08:35:28.794Z,12.60
2023-05-17T08:37:02.329Z,12.70
2023-05-17T08:38:35.617Z,12.60
2023-05-17T08:40:09.478Z,12.50
2023-05-17T08:41:42.623Z,12.40
2023-05-17T08:43:16.424Z,12.50
2023-05-17T08:44:51.020Z,12.60
2023-05-17T08:46:24.883Z,12.60
2023-05-17T08:47:58.352Z,12.70
2023-05-17T08:49:33.522Z,12.80
2023-05-17T08:51:08.614Z,12.70
2023-05-17T08:52:45.786Z,12.80
2023-05-17T08:54:18.793Z,12.90
2023-05-17T08:55:53.181Z,12.80
2023-05-17T08:57:29.168Z,13.00
2023-05-17T08:59:02.465Z,13.20
2023-05-17T09:00:36.664Z,13.10
2023-05-17T09:02:11.298Z,12.90
2023-05-17T09:03:48.580Z,12.80
2023-05-17T09:05:21.872Z,12.90
2023-05-17T09:06:55.233Z,12.90
2023-05-17T09:08:32.875Z,12.90
2023-05-17T09:10:06.439Z,12.80
2023-05-17T09:11:39.702Z,12.70
2023-05-17T09:13:13.481Z,12.50
2023-05-17T09:14:46.787Z,12.60
2023-05-17T09:16:22.139Z,12.50
2023-05-17T09:17:55.762Z,12.50
2023-05-17T09:19:29.101Z,12.60
2023-05-17T09:21:03.108Z,12.70
2023-05-17T09:22:36.931Z,12.80
2023-05-17T09:24:09.957Z,13.00
2023-05-17T09:25:48.769Z,12.90
2023-05-17T09:27:21.958Z,13.10
2023-05-17T09:28:54.939Z,13.40
2023-05-17T09:30:29.348Z,13.60
2023-05-17T09:32:17.808Z,13.50
2023-05-17T09:33:51.824Z,13.10
2023-05-17T09:35:30.272Z,12.90
2023-05-17T09:37:04.316Z,12.80
2023-05-17T09:38:37.393Z,12.80
2023-05-17T09:40:10.769Z,12.70
2023-05-17T09:41:45.147Z,12.90
2023-05-17T09:43:23.924Z,13.10
2023-05-17T09:44:58.438Z,13.30
2023-05-17T09:46:34.855Z,13.50
2023-05-17T09:48:17.717Z,13.70
2023-05-17T09:49:51.128Z,13.90
2023-05-17T09:51:42.351Z,14.00
2023-05-17T09:53:28.953Z,14.10
2023-05-17T09:55:02.641Z,14.30
2023-05-17T09:56:36.067Z,14.40
2023-05-17T09:58:09.464Z,14.50
2023-05-17T09:59:43.415Z,14.60
2023-05-17T10:01:18.551Z,14.70
2023-05-17T10:02:51.965Z,14.80
2023-05-17T10:04:31.865Z,14.90
2023-05-17T10:06:09.882Z,14.90
2023-05-17T10:07:45.794Z,15.00
2023-05-17T10:09:22.411Z,15.00
2023-05-17T10:10:57.244Z,14.80
2023-05-17T10:12:33.871Z,14.70
2023-05-17T10:14:12.294Z,14.30
2023-05-17T10:15:58.830Z,13.90
2023-05-17T10:17:33.915Z,13.70
2023-05-17T10:19:11.151Z,13.40
2023-05-17T10:20:46.302Z,13.30
2023-05-17T10:22:23.188Z,13.10
2023-05-17T10:24:01.767Z,12.90
2023-05-17T10:25:44.490Z,12.80
2023-05-17T10:27:21.664Z,12.90
2023-05-17T10:29:00.967Z,13.00
2023-05-17T10:30:40.168Z,12.90
2023-05-17T10:32:19.115Z,12.90
2023-05-17T10:33:54.469Z,12.90
2023-05-17T10:35:29.535Z,12.90
2023-05-17T10:37:05.505Z,12.80
2023-05-17T10:38:43.141Z,12.90
2023-05-17T10:41:12.149Z,13.00
2023-05-17T10:42:23.755Z,13.10
2023-05-17T10:44:00.658Z,13.40
2023-05-17T10:45:33.782Z,13.50
2023-05-17T10:47:07.448Z,13.40
2023-05-17T10:48:58.296Z,13.60
2023-05-17T10:50:31.853Z,13.70
2023-05-17T10:52:14.720Z,13.80
2023-05-17T10:54:06.479Z,13.80
2023-05-17T10:55:41.647Z,13.70
2023-05-17T10:57:21.502Z,13.50
2023-05-17T10:59:15.843Z,13.20
2023-05-17T11:00:49.832Z,13.10
2023-05-17T11:02:26.285Z,13.10
2023-05-17T11:03:59.795Z,13.00
2023-05-17T11:05:32.960Z,12.90
2023-05-17T11:07:25.917Z,12.90
2023-05-17T11:09:09.126Z,12.80
2023-05-17T11:11:10.149Z,12.80
2023-05-17T11:12:44.685Z,12.80
2023-05-17T11:14:17.715Z,12.90
2023-05-17T11:16:05.628Z,12.90
2023-05-17T11:17:51.485Z,12.90
2023-05-17T11:19:24.634Z,12.90
2023-05-17T11:21:09.333Z,12.90
2023-05-17T11:22:44.886Z,13.00
2023-05-17T11:24:26.549Z,13.20
2023-05-17T11:26:17.055Z,13.00
2023-05-17T11:27:52.281Z,13.00
2023-05-17T11:29:30.408Z,13.00
2023-05-17T11:31:03.471Z,13.00
2023-05-17T11:32:36.503Z,13.10
2023-05-17T11:34:09.695Z,13.10
2023-05-17T11:35:42.771Z,13.20
2023-05-17T11:37:26.903Z,13.20
2023-05-17T11:39:14.310Z,13.20
2023-05-17T11:40:48.573Z,13.30
2023-05-17T11:42:26.360Z,13.40
2023-05-17T11:43:59.661Z,13.60
2023-05-17T11:45:40.310Z,13.80
2023-05-17T11:47:13.713Z,13.80
2023-05-17T11:48:47.442Z,13.90
2023-05-17T11:50:20.927Z,13.90
2023-05-17T11:51:55.515Z,13.70
2023-05-17T11:53:28.821Z,13.60
2023-05-17T11:55:03.282Z,13.60
2023-05-17T11:56:43.446Z,13.60
2023-05-17T11:58:18.680Z,13.60
2023-05-17T12:00:00.124Z,13.70
2023-05-17T12:01:44.416Z,13.80
2023-05-17T12:03:22.046Z,13.80
2023-05-17T12:04:55.285Z,13.90
2023-05-17T12:06:28.751Z,14.00
2023-05-17T12:08:01.911Z,13.90
2023-05-17T12:09:35.427Z,13.80
2023-05-17T12:11:13.371Z,13.70
2023-05-17T12:12:46.372Z,13.50
2023-05-17T12:14:20.331Z,13.50
2023-05-17T12:15:56.310Z,13.60
2023-05-17T12:17:34.289Z,13.60
2023-05-17T12:19:18.827Z,13.50
2023-05-17T12:20:55.944Z,13.50
2023-05-17T12:22:28.940Z,13.50
2023-05-17T12:24:02.007Z,13.60
2023-05-17T12:25:34.988Z,13.70
2023-05-17T12:27:09.563Z,13.80
2023-05-17T12:28:44.542Z,13.90
2023-05-17T12:30:18.212Z,13.90
2023-05-17T12:31:53.514Z,14.10
2023-05-17T12:33:27.365Z,14.30
2023-05-17T12:35:00.550Z,14.60
2023-05-17T12:36:34.739Z,14.70
2023-05-17T12:38:07.787Z,14.80
2023-05-17T12:39:41.411Z,14.90
2023-05-17T12:41:15.897Z,14.90
2023-05-17T12:42:50.234Z,14.80
2023-05-17T12:44:23.407Z,14.90
2023-05-17T12:45:57.359Z,14.90
2023-05-17T12:47:33.386Z,14.70
2023-05-17T12:49:08.243Z,14.60
2023-05-17T12:50:45.786Z,14.30
2023-05-17T12:52:19.406Z,14.00
2023-05-17T12:53:53.493Z,13.70
2023-05-17T12:55:26.634Z,13.50
2023-05-17T12:56:59.628Z,13.50
2023-05-17T12:58:34.083Z,13.20
2023-05-17T13:00:09.113Z,13.10
2023-05-17T13:01:44.823Z,13.10
2023-05-17T13:03:17.846Z,13.00
2023-05-17T13:04:51.111Z,13.00
2023-05-17T13:06:24.129Z,12.90
2023-05-17T13:07:57.062Z,13.00
2023-05-17T13:09:32.055Z,13.00
2023-05-17T13:11:09.742Z,12.90
2023-05-17T13:12:42.749Z,12.90
2023-05-17T13:14:34.423Z,12.90
2023-05-17T13:16:08.246Z,13.10
2023-05-17T13:17:44.796Z,13.20
2023-05-17T13:19:18.097Z,13.40
2023-05-17T13:20:51.716Z,13.40
2023-05-17T13:22:25.181Z,13.50
2023-05-17T13:23:58.236Z,13.60
2023-05-17T13:25:31.632Z,13.60
2023-05-17T13:27:05.717Z,13.80
2023-05-17T13:28:38.773Z,13.80
2023-05-17T13:30:13.949Z,14.00
2023-05-17T13:31:47.849Z,14.00
2023-05-17T13:33:21.065Z,14.10
2023-05-17T13:34:54.409Z,14.00
2023-05-17T13:36:27.358Z,13.90
2023-05-17T13:38:00.489Z,13.90
2023-05-17T13:39:33.986Z,13.70
2023-05-17T13:41:07.689Z,13.70
2023-05-17T13:42:40.726Z,13.70
2023-05-17T13:44:13.728Z,13.80
2023-05-17T13:45:50.896Z,13.80
2023-05-17T13:47:24.044Z,13.80
2023-05-17T13:48:57.248Z,13.80
2023-05-17T13:50:30.499Z,13.80
2023-05-17T13:52:03.732Z,13.80
2023-05-17T13:53:38.647Z,13.70
2023-05-17T13:55:11.764Z,13.70
2023-05-17T13:56:44.879Z,13.60
2023-05-17T13:58:18.010Z,13.70
2023-05-17T13:59:51.016Z,13.80
2023-05-17T14:01:25.554Z,14.00
2023-05-17T14:02:58.635Z,14.30
2023-05-17T14:04:31.691Z,14.60
2023-05-17T14:06:05.512Z,14.80
2023-05-17T14:07:41.379Z,15.00
2023-05-17T14:09:14.455Z,15.00
2023-05-17T14:10:47.478Z,15.20
2023-05-17T14:12:20.503Z,15.50
2023-05-17T14:13:53.501Z,15.50
2023-05-17T14:15:27.424Z,15.70
2023-05-17T14:17:02.404Z,15.80
2023-05-17T14:18:35.780Z,15.80
2023-05-17T14:20:10.412Z,15.80
2023-05-17T14:21:43.455Z,15.70
2023-05-17T14:23:16.482Z,15.60
2023-05-17T14:24:49.393Z,15.60
2023-05-17T14:26:22.691Z,15.60
2023-05-17T14:27:55.515Z,15.70
2023-05-17T14:29:30.083Z,15.70
2023-05-17T14:31:03.044Z,15.70
2023-05-17T14:32:39.113Z,15.60
2023-05-17T14:34:12.257Z,15.60
2023-05-17T14:35:45.328Z,15.60
2023-05-17T14:37:18.307Z,15.80
2023-05-17T14:38:51.306Z,15.80
2023-05-17T14:40:24.242Z,15.70
2023-05-17T14:41:57.248Z,15.70
2023-05-17T14:43:30.189Z,15.90
2023-05-17T14:45:03.255Z,15.90
2023-05-17T14:46:36.514Z,16.00
2023-05-17T14:48:10.848Z,16.10
2023-05-17T14:49:43.658Z,16.20
2023-05-17T14:51:16.909Z,16.20
2023-05-17T14:52:49.674Z,16.20
2023-05-17T14:54:22.626Z,16.30
2023-05-17T14:55:55.700Z,16.40
2023-05-17T14:57:28.675Z,16.50
2023-05-17T14:59:01.570Z,16.30
2023-05-17T15:00:34.738Z,16.10
2023-05-17T15:02:08.092Z,16.00
2023-05-17T15:03:42.263Z,15.60
2023-05-17T15:05:15.254Z,15.50
2023-05-17T15:06:48.239Z,15.40
2023-05-17T15:08:21.767Z,15.20
2023-05-17T15:09:54.764Z,15.30
2023-05-17T15:11:28.086Z,15.60
2023-05-17T15:13:01.579Z,15.80
2023-05-17T15:14:34.501Z,15.90
2023-05-17T15:16:08.586Z,16.00
2023-05-17T15:17:41.729Z,16.00
2023-05-17T15:19:30.275Z,16.00
2023-05-17T15:21:03.449Z,16.20
2023-05-17T15:22:36.700Z,16.50
2023-05-17T15:24:12.327Z,16.80
2023-05-17T15:25:46.479Z,16.80
2023-05-17T15:27:19.498Z,16.90
2023-05-17T15:28:52.551Z,16.90
2023-05-17T15:30:27.381Z,17.00
2023-05-17T15:32:00.599Z,16.90
2023-05-17T15:33:33.674Z,16.50
2023-05-17T15:35:09.233Z,16.30
2023-05-17T15:36:42.314Z,16.10
2023-05-17T15:38:15.656Z,16.10
2023-05-17T15:39:48.818Z,16.00
2023-05-17T15:41:29.815Z,15.90
2023-05-17T15:43:03.174Z,15.70
2023-05-17T15:44:36.177Z,15.50
2023-05-17T15:46:08.348Z,15.40
2023-05-17T15:47:43.467Z,15.20
2023-05-17T15:49:17.014Z,15.20
2023-05-17T15:50:51.492Z,15.40
2023-05-17T15:52:24.726Z,15.70
2023-05-17T15:53:57.956Z,15.80
2023-05-17T15:55:31.040Z,15.80
2023-05-17T15:57:04.444Z,15.90
2023-05-17T15:58:37.480Z,15.90
2023-05-17T16:00:11.777Z,15.90
2023-05-17T16:01:46.356Z,15.80
2023-05-17T16:03:19.593Z,15.50
2023-05-17T16:04:52.369Z,15.50
2023-05-17T16:06:26.845Z,15.70
2023-05-17T16:07:59.922Z,15.90
2023-05-17T16:09:32.918Z,16.00
2023-05-17T16:11:07.308Z,16.10
2023-05-17T16:12:40.392Z,16.30
2023-05-17T16:14:13.361Z,16.40
2023-05-17T16:15:46.428Z,16.50
2023-05-17T16:17:19.582Z,16.60
2023-05-17T16:18:52.866Z,16.40
2023-05-17T16:20:26.069Z,16.40
2023-05-17T16:22:00.434Z,16.30
2023-05-17T16:23:33.615Z,16.10
2023-05-17T16:25:07.269Z,16.20
2023-05-17T16:26:40.305Z,16.20
2023-05-17T16:28:13.286Z,16.20
2023-05-17T16:29:46.305Z,16.30
2023-05-17T16:31:19.397Z,16.40
2023-05-17T16:32:52.439Z,16.60
2023-05-17T16:34:27.339Z,16.80
2023-05-17T16:36:00.630Z,16.90
2023-05-17T16:37:34.913Z,16.90
2023-05-17T16:39:08.626Z,16.90
2023-05-17T16:40:41.675Z,16.90
2023-05-17T16:42:15.201Z,16.80
2023-05-17T16:43:48.386Z,16.70
2023-05-17T16:45:21.352Z,16.70
2023-05-17T16:46:54.654Z,16.70
2023-05-17T16:48:27.874Z,16.80
2023-05-17T16:50:01.465Z,16.90
2023-05-17T16:51:34.409Z,17.00
2023-05-17T16:53:09.144Z,17.10
2023-05-17T16:54:42.137Z,17.00
2023-05-17T16:56:14.147Z,17.00
2023-05-17T16:57:47.172Z,17.20
2023-05-17T16:59:20.143Z,17.30
2023-05-17T17:00:53.095Z,17.30
2023-05-17T17:02:26.280Z,17.40
2023-05-17T17:03:59.314Z,17.30
2023-05-17T17:05:32.345Z,17.30
2023-05-17T17:07:05.641Z,17.30
2023-05-17T17:08:39.912Z,17.00
2023-05-17T17:10:12.920Z,16.90
2023-05-17T17:11:46.274Z,16.80
2023-05-17T17:13:22.620Z,16.80
2023-05-17T17:14:54.741Z,16.70
2023-05-17T17:16:27.784Z,16.80
2023-05-17T17:18:00.962Z,16.60
2023-05-17T17:19:33.775Z,16.40
2023-05-17T17:21:07.955Z,16.40
2023-05-17T17:22:41.394Z,16.30
2023-05-17T17:24:15.598Z,16.30
2023-05-17T17:25:48.396Z,16.20
2023-05-17T17:27:21.414Z,16.20
2023-05-17T17:28:54.360Z,16.10
2023-05-17T17:30:27.366Z,16.10
2023-05-17T17:32:00.765Z,16.00
2023-05-17T17:33:33.980Z,16.00
2023-05-17T17:35:08.164Z,16.00
2023-05-17T17:36:41.157Z,15.90
2023-05-17T17:38:14.327Z,15.90
2023-05-17T17:39:48.505Z,15.80
2023-05-17T17:41:21.659Z,15.80
2023-05-17T17:42:54.616Z,15.70
2023-05-17T17:44:27.618Z,15.70
2023-05-17T17:46:00.614Z,15.70
2023-05-17T17:47:34.938Z,15.70
2023-05-17T17:49:08.036Z,15.60
2023-05-17T17:50:41.251Z,15.50
2023-05-17T17:52:14.059Z,15.50
2023-05-17T17:53:48.829Z,15.40
2023-05-17T17:55:23.570Z,15.30
2023-05-17T17:56:57.020Z,15.20
2023-05-17T17:58:30.819Z,15.10
2023-05-17T18:00:04.244Z,15.10
2023-05-17T18:01:38.254Z,15.00
2023-05-17T18:03:12.719Z,15.00
2023-05-17T18:04:45.919Z,15.00
2023-05-17T18:06:19.551Z,15.00
2023-05-17T18:07:52.514Z,15.00
2023-05-17T18:09:25.448Z,14.90
2023-05-17T18:10:59.773Z,14.90
2023-05-17T18:12:32.847Z,14.90
2023-05-17T18:14:06.230Z,14.90
2023-05-17T18:15:39.350Z,14.90
2023-05-17T18:17:12.400Z,14.80
2023-05-17T18:18:45.500Z,14.80
2023-05-17T18:20:18.478Z,14.70
2023-05-17T18:21:51.442Z,14.60
2023-05-17T18:23:26.005Z,14.60
2023-05-17T18:24:59.037Z,14.50
2023-05-17T18:26:33.370Z,14.50
2023-05-17T18:28:08.066Z,14.40
2023-05-17T18:29:42.101Z,14.40
2023-05-17T18:31:15.241Z,14.30
2023-05-17T18:32:48.324Z,14.30
2023-05-17T18:34:21.371Z,14.30
2023-05-17T18:35:53.643Z,14.20
2023-05-17T18:37:26.764Z,14.10
2023-05-17T18:39:00.840Z,14.10
2023-05-17T18:40:34.028Z,14.00
2023-05-17T18:42:08.486Z,13.90
2023-05-17T18:43:41.514Z,13.90
2023-05-17T18:45:14.466Z,13.90
2023-05-17T18:46:48.562Z,13.80
2023-05-17T18:48:22.162Z,13.70
2023-05-17T18:49:55.214Z,13.70
2023-05-17T18:51:28.904Z,13.60
2023-05-17T18:53:00.982Z,13.50
2023-05-17T18:54:33.972Z,13.40
2023-05-17T18:56:07.583Z,13.40
2023-05-17T18:57:42.979Z,13.30
2023-05-17T18:59:16.118Z,13.30
2023-05-17T19:00:48.561Z,13.20
2023-05-17T19:02:21.822Z,13.20
2023-05-17T19:03:56.317Z,13.10
2023-05-17T19:05:29.445Z,13.00
2023-05-17T19:07:02.397Z,13.00
2023-05-17T19:08:35.842Z,12.90
2023-05-17T19:10:09.790Z,12.90
2023-05-17T19:11:43.128Z,12.80
2023-05-17T19:13:17.290Z,12.80
2023-05-17T19:14:50.370Z,12.70
2023-05-17T19:16:23.656Z,12.70
2023-05-17T19:17:56.659Z,12.70
2023-05-17T19:19:31.094Z,12.60
2023-05-17T19:21:04.605Z,12.60
2023-05-17T19:22:37.636Z,12.50
2023-05-17T19:24:09.942Z,12.50
2023-05-17T19:25:42.933Z,12.50
2023-05-17T19:27:19.439Z,12.40
2023-05-17T19:28:53.892Z,12.30
2023-05-17T19:30:25.917Z,12.30
2023-05-17T19:31:59.087Z,12.20
2023-05-17T19:33:34.054Z,12.10
2023-05-17T19:35:08.222Z,12.10
2023-05-17T19:36:41.242Z,12.20
2023-05-17T19:38:14.166Z,12.20
2023-05-17T19:39:47.228Z,12.30
2023-05-17T19:41:20.365Z,12.30
2023-05-17T19:42:53.491Z,12.30
2023-05-17T19:44:27.881Z,12.40
2023-05-17T19:46:01.028Z,12.40
2023-05-17T19:47:34.087Z,12.40
2023-05-17T19:49:07.115Z,12.30
2023-05-17T19:50:40.217Z,12.30
2023-05-17T19:52:13.142Z,12.30
2023-05-17T19:53:53.528Z,12.20
2023-05-17T19:55:29.979Z,12.20
2023-05-17T19:57:03.187Z,12.20
2023-05-17T19:58:36.327Z,12.10
2023-05-17T20:00:11.940Z,12.20
2023-05-17T20:01:44.987Z,12.10
2023-05-17T20:03:19.418Z,12.10
2023-05-17T20:04:54.059Z,12.10
2023-05-17T20:06:27.001Z,12.00
2023-05-17T20:08:02.418Z,12.00
2023-05-17T20:09:36.270Z,12.00
2023-05-17T20:11:09.455Z,11.90
2023-05-17T20:12:42.917Z,11.80
2023-05-17T20:14:16.258Z,11.80
2023-05-17T20:15:50.515Z,11.80
2023-05-17T20:17:23.458Z,11.70
2023-05-17T20:18:57.966Z,11.80
2023-05-17T20:20:31.270Z,11.80
2023-05-17T20:22:04.219Z,11.80
2023-05-17T20:23:37.320Z,11.70
2023-05-17T20:25:10.612Z,11.60
2023-05-17T20:26:46.335Z,11.60
2023-05-17T20:28:19.428Z,11.60
2023-05-17T20:29:52.359Z,11.60
2023-05-17T20:31:26.976Z,11.60